x

East Scotia Slope (44137) Wave Buoy

8:00am - Tue 3rd May 2016 All times are EDT. -4 hours from GMT.

  • Sig Wave height 7.9ft
  • Peak Period 9s
  • Wind
    22mph, 27mph gusts
  • Sea Temp 55°f
  • Air Temp 56°f
  • Sea Pressure 1011.5mb
  • East Scotia Slope
  • East Scotia Slope

More Historic Weather Station data

Upgrade to MSW Pro to gain access to the past 30 days of data for over 8000 Wavebouys and Weather Stations around the globe.

Join Pro

Comparision Forecast

View Surf forecast
   
Tue 05/03 8:00am 8ft 9s 22 27 mph 1011.5mb 55f 56f
7:00am 8ft 9s 20 25 mph 1011.5mb 55f 57f
6:00am 8ft 8s 18 22 mph 1011.3mb 58f 57f
5:00am 8ft 8s 13 20 mph 1010.6mb 58f 55f
4:00am 8.5ft 8s 16 18 mph 1009.9mb 58f 59f
3:00am 9ft 8s 16 20 mph 1010.2mb 58f 59f
2:00am 8ft 8s 18 22 mph 1010.8mb 58f 59f
1:00am 8.5ft 7s 20 25 mph 1010.8mb 58f 60f
12:00am 9ft 8s 25 29 mph 1011.2mb 58f 61f
Mon 05/02 11:00pm 10ft 7s 25 31 mph 1012mb 58f 61f
10:00pm 10ft 8s 22 29 mph 1012.3mb 58f 60f
9:00pm 9.5ft 7s 31 38 mph 1013.1mb 58f 58f
8:00pm 9ft 6s 34 43 mph 1014.3mb 58f 58f
7:00pm 7.5ft 6s 31 40 mph 1015.2mb 58f 57f
6:00pm 7ft 6s 29 36 mph 1016.5mb 58f 57f
5:00pm 6.5ft 5s 27 31 mph 1017.7mb 58f 56f
4:00pm 6ft 5s 22 29 mph 1019mb 58f 56f
3:00pm 5ft 5s 25 29 mph 1020.2mb 58f 55f
2:00pm 4.5ft 10s 25 29 mph 1020.9mb 58f 54f
1:00pm 4.5ft 9s 22 27 mph 1022.1mb 58f 52f
12:00pm 4.5ft 8s 20 25 mph 1022.8mb 58f 53f
11:00am 4ft 9s 18 22 mph 1023.5mb 58f 53f
10:00am 4ft 9s 18 20 mph 1023.7mb 58f 53f
9:00am 4ft 9s 16 20 mph 1024mb 58f 53f
8:00am 4ft 9s 13 18 mph 1024.5mb 58f 53f
7:00am 3.5ft 8s 13 18 mph 1024.4mb 58f 53f
6:00am 3.5ft 8s 13 16 mph 1024.1mb 58f 52f
5:00am 4ft 9s 9 13 mph 1024.3mb 58f 51f
4:00am 3.5ft 9s 4 7 mph 1024.8mb 58f 51f
3:00am 3.5ft 8s 7 9 mph 1024.5mb 58f 51f
2:00am 3.5ft 8s 7 11 mph 1024.2mb 58f 51f
1:00am 3.5ft 9s 7 11 mph 1024.6mb 58f 51f
12:00am 3.5ft 9s 9 11 mph 1024.7mb 58f 51f
Sun 05/01 11:00pm 4ft 8s 7 11 mph 1025.3mb 58f 51f
10:00pm 4ft 8s 7 9 mph 1025.7mb 58f 51f
9:00pm 3.5ft 8s 7 11 mph 1025.7mb 58f 50f
8:00pm 4ft 8s 7 11 mph 1025.6mb 58f 50f
7:00pm 3.5ft 8s 7 9 mph 1025.4mb 58f 50f
6:00pm 4ft 8s 4 9 mph 1025.8mb 58f 51f
5:00pm 4ft 8s 7 9 mph 1025.4mb 59f 51f
4:00pm 4ft 8s 7 11 mph 1025.1mb 59f 51f
3:00pm 4ft 8s 9 13 mph 1025.2mb 59f 51f
2:00pm 4ft 8s 7 11 mph 1025.2mb 59f 51f
1:00pm 3.5ft 8s 4 9 mph 1025.6mb 58f 51f
12:00pm 4ft 7s 9 13 mph 1025.6mb 58f 50f
11:00am 4ft 8s 9 13 mph 1025.6mb 58f 50f
10:00am 4ft 8s 9 13 mph 1025.6mb 58f 49f
9:00am 4.5ft 7s 11 16 mph 1025.6mb 58f 49f
8:00am 4.5ft 7s 13 18 mph 1025.3mb 58f 48f
7:00am 4ft 7s 13 18 mph 1024.9mb 58f 49f
6:00am 4.5ft 6s 13 18 mph 1024.9mb 58f 49f
5:00am 4.5ft 8s 13 18 mph 1024.3mb 58f 48f
4:00am 4.5ft 8s 16 20 mph 1023.7mb 58f 48f
3:00am 4.5ft 9s 16 20 mph 1023.3mb 58f 49f
2:00am 4.5ft 7s 13 18 mph 1023.3mb 58f 50f
1:00am 4.5ft 10s 13 18 mph 1023.4mb 58f 50f
12:00am 4.5ft 10s 13 18 mph 1023.3mb 58f 50f
Sat 04/30 11:00pm 5ft 6s 13 18 mph 1023.5mb 58f 50f
10:00pm 5ft 6s 16 20 mph 1023mb 58f 50f
9:00pm 5ft 8s 18 22 mph 1023.4mb 58f 50f
8:00pm 5ft 6s 18 20 mph 1023.1mb 58f 51f
7:00pm 5ft 6s 16 20 mph 1022.6mb 58f 50f
6:00pm 5ft 6s 18 22 mph 1021.5mb 58f 51f
5:00pm 4.5ft 7s 18 22 mph 1021.5mb 58f 51f
4:00pm 4.5ft 6s 18 22 mph 1021.7mb 58f 51f
3:00pm 4.5ft 4s 18 22 mph 1021.8mb 58f 50f
2:00pm 4.5ft 4s 18 22 mph 1022.1mb 58f 49f
1:00pm 4.5ft 4s 18 22 mph 1022.1mb 58f 49f
12:00pm 3.5ft 9s 18 22 mph 1021.3mb 58f 48f
11:00am 3.5ft 4s 20 25 mph 1021.8mb 58f 48f
10:00am 3.5ft 4s 18 25 mph 1022mb 58f 47f
9:00am 3.5ft 4s 16 22 mph 1022.2mb 58f 46f
8:00am 3ft 9s 16 20 mph 1022.1mb 58f 46f
7:00am 2.5ft 10s 13 18 mph 1022.4mb 58f 46f
6:00am 2.5ft 10s 13 20 mph 1022.2mb 58f 45f
5:00am 2.5ft 10s 13 20 mph 1021.4mb 58f 44f
4:00am 2.5ft 10s 16 20 mph 1020.6mb 58f 44f
3:00am 2.5ft 10s 13 16 mph 1021.2mb 58f 43f
2:00am 2.5ft 10s 13 18 mph 1020.7mb 58f 44f
1:00am 2.5ft 10s 9 13 mph 1021mb 58f 44f
12:00am 2.5ft 9s 7 9 mph 1021.6mb 58f 44f
Fri 04/29 11:00pm 2.5ft 10s 7 9 mph 1021.8mb 58f 44f
10:00pm 2.5ft 10s 4 9 mph 1022.3mb 58f 43f
8:00pm 2.5ft 8s 7 13 mph 1022mb 59f 43f
7:00pm 2.5ft 10s 7 13 mph 1021.5mb 59f 43f
6:00pm 3ft 9s 9 13 mph 1020.8mb 59f 43f
5:00pm 3.5ft 9s 7 11 mph 1020.8mb 59f 43f
4:00pm 3ft 10s 7 11 mph 1020.8mb 59f 43f
3:00pm 3.5ft 8s 9 13 mph 1021mb 59f 42f
2:00pm 3.5ft 10s 11 16 mph 1021.2mb 59f 43f